Flight Track Log - Related Links

Times and Time Zones

All times are in EST time to prevent confusion due to time zone crossing. See the N244A flight status page for this flight to view local times or setup timezone preferences in your user account.

Time Position Orientation Groundspeed Altitude Reporting Facility
EST Latitude Longitude Course Direction KTS MPH feet Rate Location/Type
Fri 04:09:42 PM 42.4667 -71.3167 200° South 174 200 1,000  Level KA90
Fri 04:10:36 PM 42.4333 -71.3333 200° South 217 250 3,700 3,026 Climbing KA90
Fri 04:11:37 PM 42.3667 -71.3000 160° South 273 314 6,800 3,025 Climbing KA90
Fri 04:12:37 PM 42.3333 -71.2000 114° Southeast 285 328 9,800 1,524 Climbing KA90
Fri 04:13:43 PM 42.3000 -71.0833 111° Southeast 300 345 10,000 95 Climbing KA90
Fri 04:14:43 PM 42.2833 -70.9833 103° East 295 339 10,000 579 Level KA90
Fri 04:15:37 PM 42.2333 -70.9167 135° Southeast 322 371 11,100 1,947 Climbing KA90
Fri 04:16:37 PM 42.1333 -70.8667 137° Southeast 366 421 13,700 1,593 Climbing KA90
Fri 04:17:30 PM 42.0347 -70.8369 167° South 394 453 14,100 939 Climbing Boston Center
Fri 04:18:32 PM 41.9308 -70.7911 162° South 445 512 15,500 1,951 Climbing Boston Center
Fri 04:19:33 PM 41.8133 -70.7703 172° South 433 498 18,100 2,293 Climbing Boston Center
Fri 04:20:35 PM 41.6914 -70.8578 208° Southwest 415 478 20,200 1,561 Climbing Boston Center
Fri 04:21:36 PM 41.5875 -70.9442 212° Southwest 439 505 21,300 1,463 Climbing Boston Center
Fri 04:22:38 PM 41.4822 -71.0325 212° Southwest 446 513 23,200 2,195 Climbing Boston Center
Fri 04:23:39 PM 41.3822 -71.1178 213° Southwest 433 498 25,800 2,439 Climbing Boston Center
Fri 04:24:41 PM 41.2933 -71.2050 216° Southwest 403 464 28,200 1,951 Climbing Boston Center
Fri 04:25:42 PM 41.2089 -71.2969 219° Southwest 396 456 29,800 1,082 Climbing Boston Center
Fri 04:26:43 PM 41.1419 -71.4181 234° Southwest 410 472 30,400 829 Climbing Boston Center
Fri 04:27:45 PM 41.0606 -71.5706 235° Southwest 426 490 31,500 1,024 Climbing Boston Center
Fri 04:28:46 PM 40.9908 -71.6939 233° Southwest 417 480 32,500 195 Climbing Boston Center
Fri 04:29:48 PM 40.9206 -71.8139 232° Southwest 414 476 31,900 -244 Descending Boston Center
Fri 04:30:49 PM 40.8367 -71.9219 224° Southwest 419 482 32,000 49 Climbing Boston Center
Fri 04:31:51 PM 40.7600 -72.0219 225° Southwest 422 486 32,000 -49 Level Boston Center
Fri 04:32:52 PM 40.6694 -72.1481 227° Southwest 430 495 31,900 -49 Descending Boston Center
Fri 04:33:54 PM 40.5861 -72.2589 225° Southwest 426 490 31,900  Level Boston Center
Fri 04:34:55 PM 40.5042 -72.3689 226° Southwest 424 488 31,900  Level Boston Center
Fri 04:35:57 PM 40.4208 -72.4783 225° Southwest 424 488 31,900  Level Boston Center
Fri 04:36:58 PM 40.3381 -72.5889 226° Southwest 425 489 31,900  Level Boston Center
Fri 04:38:00 PM 40.2375 -72.7219 225° Southwest 428 493 31,900 49 Level Boston Center
Fri 04:39:01 PM 40.1508 -72.8344 225° Southwest 428 493 32,000 98 Climbing Boston Center
Fri 04:40:03 PM 40.0661 -72.9469 225° Southwest 432 497 32,100 610 Climbing Boston Center
Fri 04:40:59 PM 39.9967 -73.0350 224° Southwest 434 499 33,200 974 Climbing Washington Center
Fri 04:42:00 PM 39.9133 -73.1433 225° Southwest 429 494 34,000 403 Climbing Washington Center
Fri 04:42:58 PM 39.8303 -73.2517 225° Southwest 424 488 34,000  Level Washington Center
Fri 04:43:59 PM 39.7447 -73.3597 224° Southwest 424 488 34,000 -49 Level Washington Center
Fri 04:45:01 PM 39.6592 -73.4594 222° Southwest 424 488 33,900 -50 Descending Washington Center
Fri 04:45:59 PM 39.5628 -73.5511 216° Southwest 429 494 33,900  Level Washington Center
Fri 04:46:59 PM 39.4683 -73.6478 218° Southwest 434 499 33,900  Level Washington Center
Fri 04:47:59 PM 39.3742 -73.7444 218° Southwest 439 505 33,900  Level Washington Center
Fri 04:49:00 PM 39.2797 -73.8406 218° Southwest 439 505 33,900  Level Washington Center
Fri 04:50:00 PM 39.1831 -73.9394 218° Southwest 439 505 33,900  Level Washington Center
Fri 04:50:59 PM 39.0886 -74.0325 217° Southwest 444 511 33,900  Level Washington Center
Fri 04:51:59 PM 38.9961 -74.1306 219° Southwest 444 511 33,900  Level Washington Center
Fri 04:52:59 PM 38.8992 -74.2258 217° Southwest 444 511 33,900  Level Washington Center
Fri 04:53:58 PM 38.8044 -74.3236 219° Southwest 444 511 33,900  Level Washington Center
Fri 04:54:58 PM 38.7094 -74.4183 218° Southwest 444 511 33,900  Level Washington Center
Fri 04:56:00 PM 38.6144 -74.5131 218° Southwest 439 505 33,900  Level Washington Center
Fri 04:57:00 PM 38.5192 -74.6044 217° Southwest 444 511 33,900  Level Washington Center
Fri 04:58:00 PM 38.4242 -74.6986 218° Southwest 439 505 33,900  Level Washington Center
Fri 04:59:00 PM 38.3308 -74.7925 218° Southwest 439 505 33,900  Level Washington Center
Fri 04:59:59 PM 38.2356 -74.8858 218° Southwest 439 505 33,900  Level Washington Center
Fri 05:00:59 PM 38.1444 -74.9819 220° Southwest 439 505 33,900  Level Washington Center
Fri 05:01:59 PM 38.0447 -75.0697 215° Southwest 439 505 33,900  Level Washington Center
Fri 05:02:59 PM 37.9514 -75.1625 218° Southwest 439 505 33,900  Level Washington Center
Fri 05:04:00 PM 37.8578 -75.2578 219° Southwest 439 505 33,900  Level Washington Center
Fri 05:04:58 PM 37.7619 -75.3503 217° Southwest 439 505 33,900  Level Washington Center
Fri 05:05:58 PM 37.6619 -75.4422 216° Southwest 439 505 33,900  Level Washington Center
Fri 05:06:59 PM 37.5683 -75.5369 219° Southwest 444 511 33,900  Level Washington Center
Fri 05:08:00 PM 37.4703 -75.6258 216° Southwest 439 505 33,900  Level Washington Center
Fri 05:09:00 PM 37.3742 -75.7200 218° Southwest 439 505 33,900  Level Washington Center
Fri 05:09:58 PM 37.2781 -75.8111 217° Southwest 439 505 33,900  Level Washington Center
Fri 05:10:59 PM 37.1800 -75.9022 217° Southwest 439 505 33,900  Level Washington Center
Fri 05:12:00 PM 37.0836 -75.9928 217° Southwest 444 511 33,900  Level Washington Center
Fri 05:12:59 PM 36.9875 -76.0858 218° Southwest 444 511 33,900 50 Level Washington Center
Fri 05:13:59 PM 36.8869 -76.1839 218° Southwest 450 518 34,000 50 Climbing Washington Center
Fri 05:14:58 PM 36.7903 -76.2844 220° Southwest 450 518 34,000 -50 Level Washington Center
Fri 05:15:59 PM 36.6875 -76.3922 220° Southwest 455 524 33,900 -49 Descending Washington Center
Fri 05:17:00 PM 36.5908 -76.4922 220° Southwest 455 524 33,900  Level Washington Center
Fri 05:18:00 PM 36.4919 -76.5919 219° Southwest 455 524 33,900  Level Washington Center
Fri 05:19:00 PM 36.3931 -76.6886 218° Southwest 455 524 33,900  Level Washington Center
Fri 05:19:58 PM 36.2961 -76.7878 220° Southwest 455 524 33,900  Level Washington Center
Fri 05:20:58 PM 36.1969 -76.8867 219° Southwest 455 524 33,900  Level Washington Center
Fri 05:22:00 PM 36.1000 -76.9853 219° Southwest 455 524 33,900  Level Washington Center
Fri 05:23:00 PM 36.0006 -77.0864 219° Southwest 455 524 33,900 51 Level Washington Center
Fri 05:23:58 PM 35.9142 -77.1719 219° Southwest 450 518 34,000 50 Climbing Washington Center
Fri 05:24:59 PM 35.8147 -77.2697 219° Southwest 455 524 34,000  Level Washington Center
Fri 05:26:00 PM 35.7172 -77.3700 220° Southwest 455 524 34,000  Level Washington Center
Fri 05:27:00 PM 35.6136 -77.4672 217° Southwest 460 529 34,000  Level Washington Center
Fri 05:27:58 PM 35.5158 -77.5647 219° Southwest 460 529 34,000  Level Washington Center
Fri 05:28:59 PM 35.4142 -77.6642 219° Southwest 460 529 34,000  Level Washington Center
Fri 05:29:59 PM 35.3122 -77.7658 219° Southwest 465 535 34,000  Level Washington Center
Fri 05:30:59 PM 35.2017 -77.8747 219° Southwest 465 535 34,000  Level Washington Center
Fri 05:31:58 PM 35.0994 -77.9733 218° Southwest 470 541 34,000  Level Washington Center
Fri 05:32:58 PM 34.9975 -78.0692 218° Southwest 470 541 34,000  Level Washington Center
Fri 05:33:58 PM 34.8953 -78.1647 217° Southwest 475 547 34,000 -34 Level Washington Center
Fri 05:35:54 PM 34.7119 -78.3492 220° Southwest 481 554 33,900  Descending Jacksonville Center
Fri 05:36:54 PM 34.5969 -78.4536 217° Southwest 476 548 34,000 50 Climbing Jacksonville Center
Fri 05:37:54 PM 34.4981 -78.5469 218° Southwest 471 542 34,000 -50 Level Jacksonville Center
Fri 05:38:54 PM 34.4094 -78.6394 221° Southwest 471 542 33,900 -50 Descending Jacksonville Center
Fri 05:39:54 PM 34.3083 -78.7347 218° Southwest 466 536 33,900  Level Jacksonville Center
Fri 05:40:54 PM 34.2092 -78.8275 218° Southwest 466 536 33,900  Level Jacksonville Center
Fri 05:41:54 PM 34.1078 -78.9200 217° Southwest 466 536 33,900  Level Jacksonville Center
Fri 05:42:54 PM 34.0061 -79.0122 217° Southwest 466 536 33,900  Level Jacksonville Center
Fri 05:43:54 PM 33.9050 -79.1092 219° Southwest 466 536 33,900  Level Jacksonville Center
Fri 05:44:54 PM 33.8033 -79.2011 217° Southwest 471 542 33,900  Level Jacksonville Center
Fri 05:45:54 PM 33.6975 -79.2978 217° Southwest 471 542 33,900  Level Jacksonville Center
Fri 05:46:54 PM 33.5981 -79.3942 219° Southwest 459 528 33,900  Level Jacksonville Center
Fri 05:47:54 PM 33.4961 -79.4856 217° Southwest 459 528 33,900  Level Jacksonville Center
Fri 05:48:54 PM 33.3944 -79.5789 217° Southwest 459 528 33,900  Level Jacksonville Center
Fri 05:49:54 PM 33.2944 -79.6719 218° Southwest 459 528 33,900  Level Jacksonville Center
Fri 05:50:54 PM 33.1944 -79.7625 217° Southwest 459 528 33,900  Level Jacksonville Center
Fri 05:51:54 PM 33.0925 -79.8578 218° Southwest 459 528 33,900  Level Jacksonville Center
Fri 05:52:54 PM 33.0006 -79.9378 216° Southwest 459 528 33,900 -150 Level Jacksonville Center
Fri 05:53:54 PM 32.8983 -80.0303 217° Southwest 459 528 33,600 -3,850 Descending Jacksonville Center
Fri 05:54:54 PM 32.7939 -80.1247 217° Southwest 466 536 26,200 -4,850 Descending Jacksonville Center
Fri 05:55:54 PM 32.6767 -80.2125 212° Southwest 485 558 23,900 -1,300 Descending Jacksonville Center
Fri 05:56:54 PM 32.5639 -80.2994 213° Southwest 496 571 23,600 -2,050 Descending Jacksonville Center
Fri 05:57:54 PM 32.4611 -80.3811 214° Southwest 477 549 19,800 -6,300 Descending Jacksonville Center
Fri 05:58:54 PM 32.3644 -80.4578 214° Southwest 448 516 11,000 -4,300 Descending Jacksonville Center
Fri 05:59:54 PM 32.2739 -80.5289 214° Southwest 420 483 11,200 -50 Climbing Jacksonville Center
Fri 06:00:54 PM 32.1772 -80.6025 213° Southwest 408 470 10,900 -100 Descending Jacksonville Center
Fri 06:01:54 PM 32.0722 -80.6886 215° Southwest 414 476 11,000 50 Climbing Jacksonville Center
Fri 06:02:54 PM 31.9753 -80.7644 214° Southwest 428 493 11,000  Level Jacksonville Center
Fri 06:03:54 PM 31.8867 -80.8300 212° Southwest 438 504 11,000  Level Jacksonville Center
Fri 06:04:54 PM 31.7794 -80.9131 213° Southwest 427 491 11,000 -650 Level Jacksonville Center
Fri 06:05:54 PM 31.7050 -80.9658 211° Southwest 347 399 9,700 -2,200 Descending Jacksonville Center
Fri 06:06:54 PM 31.6392 -81.0233 217° Southwest 297 342 6,600 -2,850 Descending Jacksonville Center
Fri 06:07:54 PM 31.5772 -81.0708 213° Southwest 303 349 4,000 -1,300 Descending Jacksonville Center
Fri 06:08:54 PM 31.5069 -81.1211 211° Southwest 293 337 4,000 -300 Level Jacksonville Center
Fri 06:09:54 PM 31.4367 -81.1758 214° Southwest 293 337 3,400 -950 Descending Jacksonville Center
Fri 06:10:54 PM 31.3767 -81.2233 214° Southwest 283 326 2,100 -650 Descending Jacksonville Center
Fri 06:11:54 PM 31.3189 -81.2656 212° Southwest 253 291 2,100  Level Jacksonville Center

Login

Don't have an account? Register now (free) for customized features, flight alerts, and more!